createdAt,value
2022-07-28T00:00:26.240Z,0
2022-07-28T00:01:30.160Z,0
2022-07-28T00:02:27.324Z,0
2022-07-28T00:03:28.844Z,0
2022-07-28T00:04:29.101Z,0
2022-07-28T00:05:29.306Z,0
2022-07-28T00:06:28.909Z,0
2022-07-28T00:07:30.414Z,0
2022-07-28T00:08:30.913Z,0
2022-07-28T00:09:31.121Z,0
2022-07-28T00:10:32.469Z,0
2022-07-28T00:11:32.699Z,0
2022-07-28T00:12:33.967Z,0
2022-07-28T00:13:34.446Z,0
2022-07-28T00:14:35.075Z,0
2022-07-28T00:15:35.293Z,0
2022-07-28T00:16:36.288Z,0
2022-07-28T00:17:35.328Z,0
2022-07-28T00:18:36.534Z,0
2022-07-28T00:19:36.754Z,0
2022-07-28T00:20:36.963Z,0
2022-07-28T00:21:37.214Z,0
2022-07-28T00:22:37.844Z,0
2022-07-28T00:23:49.553Z,0
2022-07-28T00:24:39.750Z,0
2022-07-28T00:25:39.974Z,0
2022-07-28T00:26:39.896Z,0
2022-07-28T00:27:40.582Z,0
2022-07-28T00:28:41.237Z,0
2022-07-28T00:30:00.463Z,0
2022-07-28T00:30:42.644Z,0
2022-07-28T00:31:43.800Z,0
2022-07-28T00:32:44.371Z,0
2022-07-28T00:33:43.852Z,0
2022-07-28T00:34:48.488Z,0
2022-07-28T00:35:46.366Z,0
2022-07-28T00:36:46.500Z,0
2022-07-28T00:37:45.922Z,0
2022-07-28T00:38:54.281Z,0
2022-07-28T00:39:48.308Z,0
2022-07-28T00:40:48.538Z,0
2022-07-28T00:41:49.029Z,0
2022-07-28T00:42:49.433Z,0
2022-07-28T00:43:49.181Z,0
2022-07-28T00:44:49.104Z,0
2022-07-28T00:45:50.308Z,0
2022-07-28T00:46:50.607Z,0
2022-07-28T00:47:50.648Z,0
2022-07-28T00:48:51.488Z,0
2022-07-28T00:49:51.869Z,0
2022-07-28T00:50:51.793Z,0
2022-07-28T00:51:51.989Z,0
2022-07-28T00:52:53.208Z,0
2022-07-28T00:53:53.718Z,0
2022-07-28T00:54:53.924Z,0
2022-07-28T00:56:17.485Z,0
2022-07-28T00:56:54.835Z,0
2022-07-28T00:57:55.764Z,0
2022-07-28T00:58:56.390Z,0
2022-07-28T00:59:57.893Z,0
2022-07-28T01:00:58.115Z,0
2022-07-28T01:02:00.240Z,0
2022-07-28T01:02:59.338Z,0
2022-07-28T01:03:58.520Z,0
2022-07-28T01:04:59.417Z,0
2022-07-28T01:05:59.319Z,0
2022-07-28T01:07:00.816Z,0
2022-07-28T01:08:00.739Z,0
2022-07-28T01:09:00.940Z,0
2022-07-28T01:10:02.162Z,0
2022-07-28T01:11:02.097Z,0
2022-07-28T01:12:03.300Z,0
2022-07-28T01:13:03.563Z,0
2022-07-28T01:14:03.831Z,0
2022-07-28T01:15:04.336Z,0
2022-07-28T01:16:04.726Z,0
2022-07-28T01:17:04.182Z,0
2022-07-28T01:18:05.374Z,0
2022-07-28T01:19:06.299Z,0
2022-07-28T01:20:06.525Z,0
2022-07-28T01:21:07.760Z,0
2022-07-28T01:22:07.975Z,0
2022-07-28T01:23:08.193Z,0
2022-07-28T01:24:08.485Z,0
2022-07-28T01:25:08.826Z,0
2022-07-28T01:26:10.325Z,0
2022-07-28T01:27:10.243Z,0
2022-07-28T01:28:11.160Z,0
2022-07-28T01:29:11.791Z,0
2022-07-28T01:30:12.988Z,0
2022-07-28T01:31:14.224Z,0
2022-07-28T01:32:14.566Z,0
2022-07-28T01:33:15.070Z,0
2022-07-28T01:34:15.224Z,0
2022-07-28T01:35:16.816Z,0
2022-07-28T01:36:16.160Z,0
2022-07-28T01:37:17.085Z,0
2022-07-28T01:38:18.401Z,0
2022-07-28T01:39:18.603Z,0
2022-07-28T01:40:19.805Z,0
2022-07-28T01:41:20.235Z,0
2022-07-28T01:42:20.020Z,0
2022-07-28T01:43:24.619Z,0
2022-07-28T01:44:22.862Z,0
2022-07-28T01:45:22.427Z,0
2022-07-28T01:46:22.940Z,0
2022-07-28T01:47:22.957Z,0
2022-07-28T01:48:23.862Z,0
2022-07-28T01:49:25.142Z,0
2022-07-28T01:50:25.096Z,0
2022-07-28T01:51:25.599Z,0
2022-07-28T01:52:25.823Z,0
2022-07-28T01:53:26.338Z,0
2022-07-28T01:54:27.225Z,0
2022-07-28T01:55:27.723Z,0
2022-07-28T01:56:28.354Z,0
2022-07-28T01:57:29.298Z,0
2022-07-28T01:58:30.032Z,0
2022-07-28T01:59:29.927Z,0
2022-07-28T02:00:34.112Z,0
2022-07-28T02:01:31.923Z,0
2022-07-28T02:02:32.253Z,0
2022-07-28T02:03:33.179Z,0
2022-07-28T02:04:34.168Z,0
2022-07-28T02:05:34.052Z,0
2022-07-28T02:06:34.007Z,0
2022-07-28T02:07:34.208Z,0
2022-07-28T02:08:33.845Z,0
2022-07-28T02:09:35.071Z,0
2022-07-28T02:10:34.687Z,0
2022-07-28T02:11:35.909Z,0
2022-07-28T02:12:35.815Z,0
2022-07-28T02:13:36.691Z,0
2022-07-28T02:14:36.260Z,0
2022-07-28T02:15:37.371Z,0
2022-07-28T02:16:37.871Z,0
2022-07-28T02:17:37.778Z,0
2022-07-28T02:18:38.556Z,0
2022-07-28T02:19:38.188Z,0
2022-07-28T02:20:39.429Z,0
2022-07-28T02:21:42.332Z,0
2022-07-28T02:22:39.383Z,0
2022-07-28T02:23:41.311Z,0
2022-07-28T02:24:41.694Z,0
2022-07-28T02:25:42.641Z,0
2022-07-28T02:26:42.863Z,0
2022-07-28T02:27:43.789Z,0
2022-07-28T02:28:45.222Z,0
2022-07-28T02:30:01.708Z,0
2022-07-28T02:30:45.315Z,0
2022-07-28T02:31:48.263Z,0
2022-07-28T02:32:51.491Z,0
2022-07-28T02:34:14.551Z,0
2022-07-28T02:35:11.469Z,0
2022-07-28T02:36:15.205Z,0
2022-07-28T02:37:13.501Z,0
2022-07-28T02:38:11.747Z,0
2022-07-28T02:39:11.948Z,0
2022-07-28T02:40:11.792Z,0
2022-07-28T02:41:13.425Z,0
2022-07-28T02:42:13.622Z,0
2022-07-28T02:43:13.822Z,0
2022-07-28T02:44:14.891Z,0
2022-07-28T02:45:14.768Z,0
2022-07-28T02:46:15.333Z,0
2022-07-28T02:47:14.851Z,0
2022-07-28T02:48:16.349Z,0
2022-07-28T02:49:16.617Z,0
2022-07-28T02:50:17.258Z,0
2022-07-28T02:51:17.480Z,0
2022-07-28T02:52:17.689Z,0
2022-07-28T02:53:27.105Z,0
2022-07-28T02:54:19.066Z,0
2022-07-28T02:55:18.602Z,0
2022-07-28T02:56:19.523Z,0
2022-07-28T02:57:20.030Z,0
2022-07-28T02:58:20.537Z,0
2022-07-28T02:59:21.042Z,0
2022-07-28T03:00:20.978Z,0
2022-07-28T03:01:21.554Z,0
2022-07-28T03:02:22.229Z,0
2022-07-28T03:03:22.134Z,0
2022-07-28T03:04:23.592Z,0
2022-07-28T03:05:23.351Z,0
2022-07-28T03:06:25.378Z,0
2022-07-28T03:07:23.767Z,0
2022-07-28T03:08:24.040Z,0
2022-07-28T03:09:24.483Z,0
2022-07-28T03:10:40.427Z,0
2022-07-28T03:11:26.044Z,0
2022-07-28T03:12:27.542Z,0
2022-07-28T03:13:27.454Z,0
2022-07-28T03:14:28.660Z,0
2022-07-28T03:15:29.958Z,0
2022-07-28T03:16:29.892Z,0
2022-07-28T03:17:30.499Z,0
2022-07-28T03:18:31.149Z,0
2022-07-28T03:19:31.659Z,0
2022-07-28T03:20:31.294Z,0
2022-07-28T03:21:32.790Z,0
2022-07-28T03:22:33.019Z,0
2022-07-28T03:23:33.645Z,0
2022-07-28T03:24:35.142Z,0
2022-07-28T03:25:35.956Z,0
2022-07-28T03:26:36.351Z,4
2022-07-28T03:27:37.554Z,4
2022-07-28T03:28:37.788Z,0
2022-07-28T03:29:37.987Z,0
2022-07-28T03:30:38.417Z,4
2022-07-28T03:31:38.735Z,4
2022-07-28T03:32:38.701Z,0
2022-07-28T03:33:39.650Z,4
2022-07-28T03:34:41.145Z,4
2022-07-28T03:35:41.846Z,4
2022-07-28T03:36:42.058Z,4
2022-07-28T03:37:43.257Z,8
2022-07-28T03:38:43.476Z,4
2022-07-28T03:39:43.401Z,8
2022-07-28T03:40:46.043Z,8
2022-07-28T03:41:44.435Z,8
2022-07-28T03:42:44.629Z,12
2022-07-28T03:43:44.848Z,12
2022-07-28T03:44:45.448Z,12
2022-07-28T03:45:51.613Z,16
2022-07-28T03:46:46.367Z,12
2022-07-28T03:47:45.994Z,12
2022-07-28T03:48:47.477Z,16
2022-07-28T03:49:47.534Z,20
2022-07-28T03:50:48.459Z,20
2022-07-28T03:51:49.086Z,20
2022-07-28T03:52:50.313Z,20
2022-07-28T03:53:51.327Z,20
2022-07-28T03:54:52.695Z,28
2022-07-28T03:55:52.004Z,28
2022-07-28T03:56:51.923Z,28
2022-07-28T03:57:52.169Z,28
2022-07-28T03:58:53.108Z,28
2022-07-28T03:59:53.307Z,36
2022-07-28T04:00:54.552Z,36
2022-07-28T04:01:55.574Z,36
2022-07-28T04:02:55.490Z,40
2022-07-28T04:03:56.121Z,40
2022-07-28T04:04:57.950Z,40
2022-07-28T04:05:58.240Z,44
2022-07-28T04:06:58.464Z,48
2022-07-28T04:07:58.369Z,44
2022-07-28T04:08:59.868Z,48
2022-07-28T04:10:00.369Z,48
2022-07-28T04:11:00.314Z,48
2022-07-28T04:12:00.543Z,48
2022-07-28T04:13:00.793Z,48
2022-07-28T04:14:01.261Z,52
2022-07-28T04:15:01.496Z,52
2022-07-28T04:16:02.385Z,60
2022-07-28T04:17:02.645Z,60
2022-07-28T04:18:02.950Z,60
2022-07-28T04:19:03.625Z,64
2022-07-28T04:20:03.656Z,64
2022-07-28T04:21:04.206Z,68
2022-07-28T04:22:04.745Z,68
2022-07-28T04:23:04.659Z,76
2022-07-28T04:24:11.234Z,76
2022-07-28T04:25:05.957Z,80
2022-07-28T04:26:06.112Z,84
2022-07-28T04:27:06.746Z,88
2022-07-28T04:28:11.094Z,92
2022-07-28T04:29:09.412Z,96
2022-07-28T04:30:09.019Z,100
2022-07-28T04:31:10.716Z,104
2022-07-28T04:32:10.017Z,108
2022-07-28T04:33:10.562Z,112
2022-07-28T04:34:10.515Z,120
2022-07-28T04:35:14.089Z,124
2022-07-28T04:36:11.281Z,128
2022-07-28T04:37:11.785Z,136
2022-07-28T04:38:12.130Z,140
2022-07-28T04:39:13.055Z,144
2022-07-28T04:40:13.272Z,148
2022-07-28T04:41:13.896Z,152
2022-07-28T04:42:13.798Z,160
2022-07-28T04:43:15.223Z,160
2022-07-28T04:44:16.579Z,160
2022-07-28T04:45:16.759Z,164
2022-07-28T04:46:21.246Z,168
2022-07-28T04:47:18.560Z,176
2022-07-28T04:48:18.750Z,180
2022-07-28T04:49:19.487Z,184
2022-07-28T04:50:20.620Z,188
2022-07-28T04:51:20.542Z,192
2022-07-28T04:52:21.768Z,196
2022-07-28T04:53:22.267Z,200
2022-07-28T04:54:31.840Z,208
2022-07-28T04:55:23.468Z,212
2022-07-28T04:56:24.507Z,216
2022-07-28T04:57:29.641Z,220
2022-07-28T04:58:27.981Z,224
2022-07-28T04:59:27.884Z,228
2022-07-28T05:00:28.756Z,232
2022-07-28T05:01:27.666Z,236
2022-07-28T05:02:27.978Z,244
2022-07-28T05:03:31.587Z,248
2022-07-28T05:04:29.590Z,252
2022-07-28T05:05:29.515Z,256
2022-07-28T05:06:29.280Z,264
2022-07-28T05:07:30.230Z,264
2022-07-28T05:08:32.270Z,272
2022-07-28T05:09:31.548Z,276
2022-07-28T05:10:31.453Z,280
2022-07-28T05:11:32.678Z,284
2022-07-28T05:12:33.583Z,292
2022-07-28T05:13:39.732Z,296
2022-07-28T05:14:34.938Z,304
2022-07-28T05:15:35.150Z,308
2022-07-28T05:16:35.701Z,308
2022-07-28T05:17:35.484Z,312
2022-07-28T05:18:36.690Z,316
2022-07-28T05:19:36.889Z,320
2022-07-28T05:20:38.118Z,324
2022-07-28T05:21:37.766Z,328
2022-07-28T05:22:38.404Z,328
2022-07-28T05:23:42.163Z,336
2022-07-28T05:24:40.813Z,336
2022-07-28T05:25:41.316Z,340
2022-07-28T05:26:41.615Z,348
2022-07-28T05:27:41.822Z,348
2022-07-28T05:28:42.030Z,356
2022-07-28T05:29:58.857Z,360
2022-07-28T05:30:43.361Z,364
2022-07-28T05:31:43.902Z,368
2022-07-28T05:32:44.209Z,372
2022-07-28T05:33:46.297Z,376
2022-07-28T05:34:45.098Z,380
2022-07-28T05:35:45.759Z,380
2022-07-28T05:36:45.939Z,384
2022-07-28T05:37:47.449Z,392
2022-07-28T05:38:48.378Z,400
2022-07-28T05:39:48.305Z,400
2022-07-28T05:40:49.811Z,408
2022-07-28T05:41:50.033Z,412
2022-07-28T05:42:50.685Z,408
2022-07-28T05:43:51.321Z,416
2022-07-28T05:44:51.950Z,420
2022-07-28T05:45:53.776Z,424
2022-07-28T05:46:53.689Z,428
2022-07-28T05:47:54.910Z,432
2022-07-28T05:48:55.183Z,444
2022-07-28T05:49:55.218Z,448
2022-07-28T05:50:55.847Z,452
2022-07-28T05:51:55.789Z,460
2022-07-28T05:52:57.182Z,464
2022-07-28T05:53:57.109Z,468
2022-07-28T05:54:58.336Z,476
2022-07-28T05:56:12.060Z,476
2022-07-28T05:57:02.380Z,480
2022-07-28T05:58:03.383Z,484
2022-07-28T05:59:03.293Z,488
2022-07-28T06:00:03.918Z,492
2022-07-28T06:01:04.920Z,500
2022-07-28T06:02:06.308Z,508
2022-07-28T06:03:06.335Z,516
2022-07-28T06:04:38.570Z,520
2022-07-28T06:05:08.073Z,520
2022-07-28T06:06:25.989Z,536
2022-07-28T06:07:14.571Z,536
2022-07-28T06:08:14.491Z,544
2022-07-28T06:09:15.136Z,548
2022-07-28T06:10:16.371Z,556
2022-07-28T06:11:28.612Z,568
2022-07-28T06:12:17.819Z,572
2022-07-28T06:13:18.735Z,580
2022-07-28T06:14:20.189Z,580
2022-07-28T06:15:19.128Z,588
2022-07-28T06:16:24.579Z,588
2022-07-28T06:17:20.168Z,588
2022-07-28T06:18:20.669Z,596
2022-07-28T06:19:20.575Z,608
2022-07-28T06:20:21.360Z,616
2022-07-28T06:21:23.005Z,620
2022-07-28T06:22:21.909Z,636
2022-07-28T06:23:23.114Z,644
2022-07-28T06:24:23.782Z,648
2022-07-28T06:25:23.990Z,660
2022-07-28T06:26:24.483Z,664
2022-07-28T06:27:25.524Z,668
2022-07-28T06:28:25.726Z,684
2022-07-28T06:29:26.250Z,692
2022-07-28T06:30:26.294Z,684
2022-07-28T06:31:26.893Z,696
2022-07-28T06:32:26.376Z,692
2022-07-28T06:33:28.865Z,684
2022-07-28T06:34:28.455Z,664
2022-07-28T06:35:28.085Z,708
2022-07-28T06:36:28.692Z,712
2022-07-28T06:37:30.010Z,712
2022-07-28T06:38:31.136Z,720
2022-07-28T06:39:33.245Z,724
2022-07-28T06:40:31.838Z,724
2022-07-28T06:41:32.339Z,732
2022-07-28T06:42:33.270Z,728
2022-07-28T06:43:36.736Z,736
2022-07-28T06:45:04.910Z,748
2022-07-28T06:45:33.138Z,752
2022-07-28T06:46:33.508Z,760
2022-07-28T06:47:33.883Z,772
2022-07-28T06:48:38.573Z,772
2022-07-28T06:49:36.066Z,772
2022-07-28T06:50:38.259Z,772
2022-07-28T06:51:38.260Z,780
2022-07-28T06:52:36.983Z,784
2022-07-28T06:53:40.395Z,788
2022-07-28T06:54:38.718Z,792
2022-07-28T06:55:49.361Z,788
2022-07-28T06:56:38.870Z,792
2022-07-28T06:57:44.484Z,796
2022-07-28T06:58:40.393Z,800
2022-07-28T06:59:40.857Z,804
2022-07-28T07:00:42.127Z,808
2022-07-28T07:01:42.860Z,808
2022-07-28T07:02:42.773Z,820
2022-07-28T07:03:43.396Z,824
2022-07-28T07:04:43.801Z,812
2022-07-28T07:05:43.875Z,816
2022-07-28T07:06:45.276Z,820
2022-07-28T07:07:49.456Z,832
2022-07-28T07:08:45.389Z,832
2022-07-28T07:09:48.222Z,836
2022-07-28T07:10:47.138Z,844
2022-07-28T07:11:47.378Z,844
2022-07-28T07:12:47.729Z,848
2022-07-28T07:13:48.683Z,848
2022-07-28T07:14:49.610Z,856
2022-07-28T07:15:49.853Z,936
2022-07-28T07:16:50.431Z,1076
2022-07-28T07:17:50.782Z,1404
2022-07-28T07:18:51.299Z,1548
2022-07-28T07:19:51.948Z,1596
2022-07-28T07:20:52.162Z,1616
2022-07-28T07:21:52.428Z,1476
2022-07-28T07:22:53.640Z,1500
2022-07-28T07:23:54.160Z,1488
2022-07-28T07:25:02.079Z,1508
2022-07-28T07:25:54.041Z,1636
2022-07-28T07:26:55.545Z,1760
2022-07-28T07:27:56.011Z,1784
2022-07-28T07:28:57.230Z,1976
2022-07-28T07:29:57.461Z,1940
2022-07-28T07:30:58.408Z,1968
2022-07-28T07:32:06.911Z,1984
2022-07-28T07:32:59.538Z,1932
2022-07-28T07:33:59.351Z,1804
2022-07-28T07:34:59.870Z,1664
2022-07-28T07:36:00.510Z,1596
2022-07-28T07:37:01.200Z,1544
2022-07-28T07:38:01.947Z,1508
2022-07-28T07:39:03.164Z,1432
2022-07-28T07:40:03.094Z,1416
2022-07-28T07:41:04.016Z,1412
2022-07-28T07:42:05.964Z,1380
2022-07-28T07:43:04.896Z,1404
2022-07-28T07:44:06.116Z,1416
2022-07-28T07:45:06.760Z,1444
2022-07-28T07:46:07.338Z,1396
2022-07-28T07:47:08.273Z,1384
2022-07-28T07:48:08.528Z,1388
2022-07-28T07:49:08.734Z,1408
2022-07-28T07:50:10.657Z,1420
2022-07-28T07:51:15.232Z,1440
2022-07-28T07:52:10.699Z,1468
2022-07-28T07:53:10.347Z,1460
2022-07-28T07:54:11.536Z,1424
2022-07-28T07:55:12.292Z,1388
2022-07-28T07:56:12.528Z,1412
2022-07-28T07:57:12.733Z,1440
2022-07-28T07:58:13.765Z,1500
2022-07-28T07:59:14.417Z,1560
2022-07-28T08:00:36.252Z,1696
2022-07-28T08:01:16.499Z,1812
2022-07-28T08:02:16.848Z,2048
2022-07-28T08:03:31.555Z,2528
2022-07-28T08:04:21.726Z,2868
2022-07-28T08:05:25.450Z,3004
2022-07-28T08:06:26.425Z,2808
2022-07-28T08:07:22.108Z,2508
2022-07-28T08:08:21.031Z,2204
2022-07-28T08:09:21.253Z,2112
2022-07-28T08:10:20.885Z,2132
2022-07-28T08:11:22.239Z,1988
2022-07-28T08:12:30.950Z,1864
2022-07-28T08:13:24.166Z,1940
2022-07-28T08:14:25.257Z,2184
2022-07-28T08:15:25.189Z,2252
2022-07-28T08:16:26.463Z,2232
2022-07-28T08:17:31.643Z,2020
2022-07-28T08:18:26.980Z,1904
2022-07-28T08:19:32.794Z,1964
2022-07-28T08:20:27.430Z,2028
2022-07-28T08:21:27.959Z,1976
2022-07-28T08:22:27.572Z,1932
2022-07-28T08:23:34.348Z,1912
2022-07-28T08:24:45.404Z,1948
2022-07-28T08:25:30.636Z,1932
2022-07-28T08:26:31.161Z,1900
2022-07-28T08:27:31.109Z,2004
2022-07-28T08:28:32.611Z,2112
2022-07-28T08:29:33.162Z,2096
2022-07-28T08:30:38.926Z,2132
2022-07-28T08:31:35.363Z,2232
2022-07-28T08:32:34.899Z,2436
2022-07-28T08:33:34.873Z,2804
2022-07-28T08:34:44.023Z,3076
2022-07-28T08:35:46.415Z,3208
2022-07-28T08:36:36.942Z,3244
2022-07-28T08:37:37.274Z,3100
2022-07-28T08:38:38.333Z,2888
2022-07-28T08:39:39.558Z,2656
2022-07-28T08:40:39.563Z,2404
2022-07-28T08:41:45.079Z,2312
2022-07-28T08:42:41.294Z,2216
2022-07-28T08:43:42.076Z,1996
2022-07-28T08:44:42.721Z,1884
2022-07-28T08:45:48.184Z,1792
2022-07-28T08:46:44.941Z,1808
2022-07-28T08:48:17.042Z,1904
2022-07-28T08:49:04.680Z,2012
2022-07-28T08:50:05.081Z,2068
2022-07-28T08:51:05.295Z,2132
2022-07-28T08:52:06.533Z,2252
2022-07-28T08:53:06.745Z,2272
2022-07-28T08:54:07.162Z,2224
2022-07-28T08:55:07.549Z,2176
2022-07-28T08:56:09.160Z,2216
2022-07-28T08:57:08.789Z,2268
2022-07-28T08:58:10.440Z,2508
2022-07-28T08:59:11.506Z,2548
2022-07-28T09:00:12.176Z,2584
2022-07-28T09:01:13.186Z,2664
2022-07-28T09:02:13.994Z,2812
2022-07-28T09:03:14.435Z,2960
2022-07-28T09:04:14.824Z,3360
2022-07-28T09:05:15.676Z,3524
2022-07-28T09:06:15.885Z,3652
2022-07-28T09:07:16.532Z,3836
2022-07-28T09:08:17.048Z,3932
2022-07-28T09:09:17.773Z,3828
2022-07-28T09:10:18.039Z,4104
2022-07-28T09:11:17.992Z,4588
2022-07-28T09:12:18.620Z,5196
2022-07-28T09:13:24.428Z,6128
2022-07-28T09:14:21.567Z,7016
2022-07-28T09:15:21.782Z,7572
2022-07-28T09:16:23.265Z,7664
2022-07-28T09:17:23.003Z,7916
2022-07-28T09:18:23.678Z,8644
2022-07-28T09:19:24.387Z,9408
2022-07-28T09:20:25.383Z,9352
2022-07-28T09:21:25.685Z,9416
2022-07-28T09:22:26.930Z,9224
2022-07-28T09:23:54.980Z,10332
2022-07-28T09:24:28.997Z,10856
2022-07-28T09:25:29.218Z,11600
2022-07-28T09:26:29.466Z,11776
2022-07-28T09:27:29.732Z,12280
2022-07-28T09:28:31.202Z,12248
2022-07-28T09:29:35.249Z,12292
2022-07-28T09:30:32.188Z,12360
2022-07-28T09:31:33.243Z,12440
2022-07-28T09:32:33.861Z,12368
2022-07-28T09:33:54.825Z,12492
2022-07-28T09:34:35.441Z,12552
2022-07-28T09:35:35.668Z,12488
2022-07-28T09:36:36.313Z,12600
2022-07-28T09:37:38.775Z,12648
2022-07-28T09:38:37.973Z,12536
2022-07-28T09:39:38.009Z,12600
2022-07-28T09:40:38.233Z,12592
2022-07-28T09:41:38.430Z,12556
2022-07-28T09:42:38.654Z,12616
2022-07-28T09:43:39.573Z,12668
2022-07-28T09:44:40.811Z,12536
2022-07-28T09:45:40.782Z,12440
2022-07-28T09:46:42.433Z,12596
2022-07-28T09:47:44.087Z,12580
2022-07-28T09:48:44.969Z,12524
2022-07-28T09:49:48.463Z,12508
2022-07-28T09:50:45.541Z,12548
2022-07-28T09:51:46.500Z,12524
2022-07-28T09:52:46.732Z,12592
2022-07-28T09:53:47.105Z,12472
2022-07-28T09:54:52.099Z,12476
2022-07-28T09:55:51.039Z,12480
2022-07-28T09:56:50.264Z,12476
2022-07-28T09:57:55.648Z,12420
2022-07-28T09:58:51.537Z,12316
2022-07-28T10:00:01.284Z,12232
2022-07-28T10:00:52.849Z,12196
2022-07-28T10:01:51.930Z,12268
2022-07-28T10:02:59.050Z,12208
2022-07-28T10:03:53.628Z,12212
2022-07-28T10:04:54.431Z,11780
2022-07-28T10:05:59.798Z,11928
2022-07-28T10:06:55.461Z,12044
2022-07-28T10:07:55.712Z,12036
2022-07-28T10:08:56.659Z,11976
2022-07-28T10:09:57.392Z,11980
2022-07-28T10:10:57.366Z,11848
2022-07-28T10:11:58.643Z,12016
2022-07-28T10:12:58.600Z,11908
2022-07-28T10:13:58.818Z,11880
2022-07-28T10:14:59.081Z,11600
2022-07-28T10:16:02.756Z,11564
2022-07-28T10:17:05.731Z,11636
2022-07-28T10:18:00.403Z,11728
2022-07-28T10:19:01.361Z,11712
2022-07-28T10:20:01.242Z,11644
2022-07-28T10:21:02.474Z,11628
2022-07-28T10:22:02.717Z,11552
2022-07-28T10:23:02.939Z,11368
2022-07-28T10:24:03.887Z,11484
2022-07-28T10:25:05.115Z,11408
2022-07-28T10:26:04.761Z,11372
2022-07-28T10:27:06.070Z,11416
2022-07-28T10:28:07.006Z,11412
2022-07-28T10:29:07.351Z,11308
2022-07-28T10:30:08.348Z,11132
2022-07-28T10:31:09.002Z,10880
2022-07-28T10:32:09.013Z,10968
2022-07-28T10:33:10.256Z,11064
2022-07-28T10:34:14.316Z,10960
2022-07-28T10:35:11.871Z,10988
2022-07-28T10:36:13.099Z,11044
2022-07-28T10:37:14.980Z,10936
2022-07-28T10:38:14.373Z,11088
2022-07-28T10:39:15.297Z,11104
2022-07-28T10:40:21.272Z,11068
2022-07-28T10:41:16.510Z,11048
2022-07-28T10:42:16.766Z,10908
2022-07-28T10:43:17.973Z,10888
2022-07-28T10:44:18.608Z,10800
2022-07-28T10:45:18.219Z,10736
2022-07-28T10:46:23.087Z,10860
2022-07-28T10:47:25.754Z,10876
2022-07-28T10:48:18.918Z,10832
2022-07-28T10:49:27.406Z,10776
2022-07-28T10:50:22.160Z,10732
2022-07-28T10:51:23.120Z,10696
2022-07-28T10:53:04.618Z,10540
2022-07-28T10:53:24.589Z,10572
2022-07-28T10:54:33.089Z,10572
2022-07-28T10:55:26.173Z,10496
2022-07-28T10:56:25.775Z,10492
2022-07-28T10:57:26.406Z,10452
2022-07-28T10:58:30.989Z,10312
2022-07-28T10:59:34.351Z,10288
2022-07-28T11:01:10.578Z,10396
2022-07-28T11:02:00.076Z,10360
2022-07-28T11:02:47.357Z,10324
2022-07-28T11:03:47.318Z,10328
2022-07-28T11:04:46.283Z,10316
2022-07-28T11:05:46.504Z,10184
2022-07-28T11:06:47.028Z,10232
2022-07-28T11:07:46.972Z,10236
2022-07-28T11:08:53.286Z,10264
2022-07-28T11:09:49.976Z,10232
2022-07-28T11:10:49.268Z,10180
2022-07-28T11:11:49.943Z,10132
2022-07-28T11:12:50.584Z,10276
2022-07-28T11:13:57.993Z,10188
2022-07-28T11:14:51.991Z,10156
2022-07-28T11:15:54.053Z,10072
2022-07-28T11:16:55.547Z,9920
2022-07-28T11:17:55.855Z,9840
2022-07-28T11:18:55.771Z,9812
2022-07-28T11:20:35.762Z,9744
2022-07-28T11:21:30.932Z,9744
2022-07-28T11:22:32.065Z,9720
2022-07-28T11:23:35.748Z,9716
2022-07-28T11:24:30.216Z,9676
2022-07-28T11:25:33.554Z,9628
2022-07-28T11:26:31.179Z,9540
2022-07-28T11:27:31.410Z,9424
2022-07-28T11:28:31.348Z,9376
2022-07-28T11:29:32.004Z,9320
2022-07-28T11:30:33.713Z,9324
2022-07-28T11:31:34.169Z,9296
2022-07-28T11:32:49.765Z,9252
2022-07-28T11:33:34.995Z,9200
2022-07-28T11:34:35.249Z,9136
2022-07-28T11:35:35.494Z,9072
2022-07-28T11:36:35.802Z,9076
2022-07-28T11:37:36.740Z,9012
2022-07-28T11:38:36.957Z,8944
2022-07-28T11:39:50.739Z,8856
2022-07-28T11:40:38.669Z,8820
2022-07-28T11:41:41.275Z,8728
2022-07-28T11:42:39.911Z,8664
2022-07-28T11:43:48.684Z,8576
2022-07-28T11:44:41.402Z,8536
2022-07-28T11:46:02.001Z,8448
2022-07-28T11:46:44.191Z,8396
2022-07-28T11:47:43.166Z,8372
2022-07-28T11:48:44.240Z,8428
2022-07-28T11:49:44.266Z,7992
2022-07-28T11:50:45.407Z,8532
2022-07-28T11:52:03.096Z,8228
2022-07-28T11:52:46.430Z,8136
2022-07-28T11:53:47.366Z,8088
2022-07-28T11:54:48.340Z,8080
2022-07-28T11:56:13.477Z,7968
2022-07-28T11:56:49.392Z,7932
2022-07-28T11:57:53.752Z,7848
2022-07-28T11:58:51.116Z,7828
2022-07-28T11:59:55.224Z,7792
2022-07-28T12:00:53.192Z,7768
2022-07-28T12:01:52.669Z,7732
2022-07-28T12:02:54.338Z,7748
2022-07-28T12:04:05.104Z,7680
2022-07-28T12:04:55.067Z,7692
2022-07-28T12:05:56.471Z,7668
2022-07-28T12:07:02.373Z,7576
2022-07-28T12:07:57.437Z,7532
2022-07-28T12:08:57.378Z,7524
2022-07-28T12:09:57.019Z,7456
2022-07-28T12:11:06.615Z,7388
2022-07-28T12:11:58.746Z,7380
2022-07-28T12:12:58.700Z,7348
2022-07-28T12:13:59.212Z,7312
2022-07-28T12:15:02.150Z,7252
2022-07-28T12:15:59.718Z,7228
2022-07-28T12:17:02.734Z,7204
2022-07-28T12:18:02.323Z,7188
2022-07-28T12:19:05.245Z,7156
2022-07-28T12:20:05.624Z,7100
2022-07-28T12:21:10.970Z,7036
2022-07-28T12:22:07.342Z,7048
2022-07-28T12:23:05.407Z,7012
2022-07-28T12:24:08.298Z,6956
2022-07-28T12:25:13.551Z,6904
2022-07-28T12:26:10.161Z,6804
2022-07-28T12:27:07.770Z,6804
2022-07-28T12:28:14.265Z,6828
2022-07-28T12:29:17.169Z,6824
2022-07-28T12:30:09.868Z,6804
2022-07-28T12:31:14.494Z,6728
2022-07-28T12:32:11.843Z,6660
2022-07-28T12:33:12.506Z,6644
2022-07-28T12:34:12.965Z,6640
2022-07-28T12:35:13.331Z,6600
2022-07-28T12:36:13.568Z,6568
2022-07-28T12:37:14.115Z,6536
2022-07-28T12:38:15.155Z,6512
2022-07-28T12:39:18.783Z,6492
2022-07-28T12:40:16.424Z,6468
2022-07-28T12:41:16.730Z,6468
2022-07-28T12:42:17.835Z,6200
2022-07-28T12:43:18.072Z,5836
2022-07-28T12:44:19.031Z,5748
2022-07-28T12:45:18.409Z,6384
2022-07-28T12:46:20.119Z,6368
2022-07-28T12:47:20.817Z,6072
2022-07-28T12:48:20.757Z,6036
2022-07-28T12:49:22.031Z,6056
2022-07-28T12:50:22.601Z,6048
2022-07-28T12:51:23.453Z,6144
2022-07-28T12:52:23.278Z,6104
2022-07-28T12:53:23.375Z,6052
2022-07-28T12:54:25.793Z,6016
2022-07-28T12:55:25.438Z,6000
2022-07-28T12:56:26.367Z,6012
2022-07-28T12:57:26.885Z,5960
2022-07-28T12:58:26.845Z,5940
2022-07-28T12:59:27.069Z,5792
2022-07-28T13:00:27.531Z,5476
2022-07-28T13:01:27.800Z,5884
2022-07-28T13:02:28.477Z,5400
2022-07-28T13:03:28.515Z,5668
2022-07-28T13:04:29.271Z,5560
2022-07-28T13:05:28.628Z,5756
2022-07-28T13:06:31.987Z,4132
2022-07-28T13:07:31.747Z,5344
2022-07-28T13:08:35.292Z,5244
2022-07-28T13:09:40.734Z,5512
2022-07-28T13:10:34.766Z,5548
2022-07-28T13:12:04.157Z,5388
2022-07-28T13:12:51.003Z,5376
2022-07-28T13:13:51.925Z,5312
2022-07-28T13:14:52.994Z,5296
2022-07-28T13:15:59.325Z,5292
2022-07-28T13:16:54.408Z,4576
2022-07-28T13:17:54.474Z,5140
2022-07-28T13:18:54.694Z,5116
2022-07-28T13:19:55.636Z,5252
2022-07-28T13:20:56.604Z,5020
2022-07-28T13:22:14.763Z,4052
2022-07-28T13:23:02.942Z,4072
2022-07-28T13:24:03.320Z,2220
2022-07-28T13:25:04.258Z,3244
2022-07-28T13:26:05.203Z,4976
2022-07-28T13:27:05.436Z,4856
2022-07-28T13:28:06.495Z,4920
2022-07-28T13:29:11.051Z,4928
2022-07-28T13:30:07.492Z,4852
2022-07-28T13:31:08.516Z,4764
2022-07-28T13:32:09.607Z,4680
2022-07-28T13:33:13.689Z,4620
2022-07-28T13:34:11.208Z,4568
2022-07-28T13:35:23.992Z,4460
2022-07-28T13:36:11.908Z,4380
2022-07-28T13:37:13.139Z,4304
2022-07-28T13:38:13.903Z,4268
2022-07-28T13:39:14.577Z,4220
2022-07-28T13:40:14.877Z,4200
2022-07-28T13:41:16.111Z,4168
2022-07-28T13:42:18.677Z,4108
2022-07-28T13:43:22.827Z,4060
2022-07-28T13:44:18.949Z,4016
2022-07-28T13:45:30.053Z,3984
2022-07-28T13:46:19.441Z,3956
2022-07-28T13:47:22.904Z,3940
2022-07-28T13:48:19.496Z,3904
2022-07-28T13:49:21.373Z,3860
2022-07-28T13:50:22.149Z,3840
2022-07-28T13:51:27.903Z,3820
2022-07-28T13:52:42.696Z,3800
2022-07-28T13:53:32.782Z,3804
2022-07-28T13:54:33.675Z,3792
2022-07-28T13:55:34.084Z,3784